createdAt,value
2022-12-11T00:03:08.306Z,6.38
2022-12-11T00:08:08.185Z,5.60
2022-12-11T00:13:05.038Z,6.15
2022-12-11T00:18:01.529Z,5.38
2022-12-11T00:22:58.004Z,5.78
2022-12-11T00:27:54.461Z,5.70
2022-12-11T00:32:53.783Z,6.33
2022-12-11T00:37:50.337Z,6.55
2022-12-11T00:42:47.931Z,6.20
2022-12-11T00:47:44.552Z,5.85
2022-12-11T00:52:41.058Z,6.38
2022-12-11T00:57:37.580Z,5.10
2022-12-11T01:02:34.697Z,7.50
2022-12-11T01:12:28.664Z,6.35
2022-12-11T01:17:25.329Z,6.90
2022-12-11T01:22:23.909Z,7.00
2022-12-11T01:27:20.428Z,5.93
2022-12-11T01:32:17.077Z,7.22
2022-12-11T01:37:13.553Z,7.35
2022-12-11T01:42:18.515Z,7.43
2022-12-11T01:47:14.993Z,6.65
2022-12-11T01:52:15.497Z,7.68
2022-12-11T01:57:12.735Z,7.75
2022-12-11T02:02:15.452Z,8.20
2022-12-11T02:07:11.987Z,8.02
2022-12-11T02:12:37.057Z,7.70
2022-12-11T02:17:52.701Z,7.30
2022-12-11T02:23:31.448Z,6.93
2022-12-11T02:28:35.151Z,7.88
2022-12-11T02:33:38.866Z,7.97
2022-12-11T02:38:39.014Z,7.30
2022-12-11T02:43:36.889Z,6.90
2022-12-11T02:48:33.891Z,7.57
2022-12-11T02:53:32.358Z,6.68
2022-12-11T02:58:31.884Z,7.38
2022-12-11T03:03:29.528Z,7.50
2022-12-11T03:08:26.188Z,7.22
2022-12-11T03:13:24.812Z,6.80
2022-12-11T03:18:40.179Z,6.82
2022-12-11T03:24:02.792Z,6.82
2022-12-11T03:29:18.305Z,7.15
2022-12-11T03:34:29.179Z,7.13
2022-12-11T03:39:39.239Z,7.40
2022-12-11T03:44:37.247Z,8.30
2022-12-11T03:49:37.094Z,8.25
2022-12-11T03:54:34.643Z,8.30
2022-12-11T03:59:31.217Z,8.02
2022-12-11T04:04:27.734Z,9.30
2022-12-11T04:09:24.301Z,8.20
2022-12-11T04:14:39.258Z,8.57
2022-12-11T04:19:54.346Z,7.72
2022-12-11T04:24:51.010Z,8.18
2022-12-11T04:29:47.487Z,8.02
2022-12-11T04:34:43.946Z,8.60
2022-12-11T04:39:40.338Z,9.07
2022-12-11T04:44:36.783Z,8.57
2022-12-11T04:49:33.249Z,9.10
2022-12-11T04:54:33.030Z,9.15
2022-12-11T04:59:30.124Z,7.38
2022-12-11T05:09:23.295Z,8.70
2022-12-11T05:14:19.950Z,8.68
2022-12-11T05:19:16.399Z,8.93
2022-12-11T05:24:12.834Z,8.50
2022-12-11T05:29:09.383Z,9.27
2022-12-11T05:34:05.879Z,9.20
2022-12-11T05:39:03.587Z,8.75
2022-12-11T05:44:00.192Z,8.80
2022-12-11T05:48:59.661Z,9.00
2022-12-11T05:53:56.887Z,8.20
2022-12-11T05:58:57.170Z,8.65
2022-12-11T06:03:54.435Z,8.60
2022-12-11T06:08:55.086Z,8.80
2022-12-11T06:13:52.209Z,8.85
2022-12-11T06:23:46.872Z,9.23
2022-12-11T06:28:43.565Z,8.90
2022-12-11T06:33:40.282Z,8.52
2022-12-11T06:38:37.319Z,9.05
2022-12-11T06:43:35.074Z,9.43
2022-12-11T06:48:31.852Z,9.35
2022-12-11T06:53:29.138Z,9.68
2022-12-11T06:58:25.653Z,9.60
2022-12-11T07:03:22.126Z,8.90
2022-12-11T07:08:18.703Z,9.48
2022-12-11T07:13:15.279Z,10.20
2022-12-11T07:18:11.811Z,10.05
2022-12-11T07:23:08.278Z,9.45
2022-12-11T07:28:04.820Z,8.93
2022-12-11T07:33:01.325Z,9.30
2022-12-11T07:37:59.553Z,9.85
2022-12-11T07:42:56.114Z,9.65
2022-12-11T07:47:58.993Z,9.93
2022-12-11T07:53:03.565Z,10.00
2022-12-11T07:58:00.068Z,10.18
2022-12-11T08:02:57.693Z,10.00
2022-12-11T08:07:54.325Z,11.25
2022-12-11T08:12:51.109Z,10.23
2022-12-11T08:17:47.556Z,10.52
2022-12-11T08:22:43.983Z,9.83
2022-12-11T08:27:40.404Z,10.23
2022-12-11T08:32:37.086Z,9.50
2022-12-11T08:37:36.334Z,9.73
2022-12-11T08:42:32.837Z,8.60
2022-12-11T08:47:30.238Z,7.93
2022-12-11T08:52:26.687Z,8.95
2022-12-11T08:57:25.261Z,9.10
2022-12-11T09:02:21.810Z,9.02
2022-12-11T09:07:18.327Z,9.05
2022-12-11T09:12:14.803Z,8.98
2022-12-11T09:17:11.289Z,9.00
2022-12-11T09:22:09.926Z,8.35
2022-12-11T09:27:06.471Z,9.68
2022-12-11T09:32:02.931Z,8.90
2022-12-11T09:36:59.500Z,8.68
2022-12-11T09:42:05.145Z,9.07
2022-12-11T09:47:01.815Z,9.13
2022-12-11T09:52:13.606Z,8.35
2022-12-11T09:57:26.830Z,8.82
2022-12-11T10:02:27.558Z,9.15
2022-12-11T10:07:41.038Z,8.80
2022-12-11T10:12:48.546Z,8.15
2022-12-11T10:17:45.890Z,8.82
2022-12-11T10:22:42.601Z,8.27
2022-12-11T10:27:40.063Z,7.78
2022-12-11T10:32:47.178Z,8.70
2022-12-11T10:37:43.648Z,9.05
2022-12-11T10:42:45.576Z,8.50
2022-12-11T10:47:42.275Z,8.55
2022-12-11T10:52:44.624Z,8.32
2022-12-11T10:57:41.077Z,9.10
2022-12-11T11:02:38.663Z,8.38
2022-12-11T11:07:35.229Z,8.77
2022-12-11T11:12:41.355Z,6.68
2022-12-11T11:17:55.715Z,7.65
2022-12-11T11:22:55.735Z,8.63
2022-12-11T11:27:57.470Z,7.88
2022-12-11T11:33:00.703Z,8.88
2022-12-11T11:38:10.135Z,7.85
2022-12-11T11:43:30.767Z,7.95
2022-12-11T11:48:48.307Z,9.38
2022-12-11T11:53:48.552Z,9.17
2022-12-11T11:58:56.187Z,8.48
2022-12-11T12:03:52.868Z,7.45
2022-12-11T12:09:36.870Z,9.80
2022-12-11T12:15:12.488Z,9.13
2022-12-11T12:20:27.706Z,9.30
2022-12-11T12:25:49.235Z,9.48
2022-12-11T12:30:48.465Z,9.15
2022-12-11T12:35:54.191Z,8.40
2022-12-11T12:40:55.671Z,8.75
2022-12-11T12:46:24.965Z,8.57
2022-12-11T12:51:21.556Z,9.73
2022-12-11T12:56:18.166Z,8.48
2022-12-11T13:01:21.615Z,9.13
2022-12-11T13:06:38.659Z,9.00
2022-12-11T13:11:36.351Z,8.60
2022-12-11T13:16:41.318Z,9.20
2022-12-11T13:21:40.975Z,9.68
2022-12-11T13:26:37.589Z,8.20
2022-12-11T13:31:38.598Z,8.15
2022-12-11T13:42:03.083Z,8.18
2022-12-11T13:47:14.669Z,9.18
2022-12-11T14:50:06.780Z,9.38
2022-12-11T15:02:05.147Z,9.48
2022-12-11T17:51:12.446Z,12.85
